sensor_id;sensor_type;location;lat;lon;timestamp;pressure;altitude;pressure_sealevel;temperature;humidity
11468;BME280;5790;42.762;23.430;2023-04-30T00:01:57;72943.47;;;-142.66;74.47
11468;BME280;5790;42.762;23.430;2023-04-30T00:04:24;72976.13;;;-142.66;74.82
11468;BME280;5790;42.762;23.430;2023-04-30T00:06:51;73008.78;;;-142.66;75.60
11468;BME280;5790;42.762;23.430;2023-04-30T00:09:18;73035.31;;;-142.66;75.97
11468;BME280;5790;42.762;23.430;2023-04-30T00:11:45;73045.53;;;-142.66;76.62
11468;BME280;5790;42.762;23.430;2023-04-30T00:14:12;73049.59;;;-142.66;76.69
11468;BME280;5790;42.762;23.430;2023-04-30T00:16:41;73027.16;;;-142.66;75.76
11468;BME280;5790;42.762;23.430;2023-04-30T00:19:07;73014.91;;;-142.66;75.66
11468;BME280;5790;42.762;23.430;2023-04-30T00:21:35;73014.91;;;-142.66;75.71
11468;BME280;5790;42.762;23.430;2023-04-30T00:24:02;73014.91;;;-142.66;75.79
11468;BME280;5790;42.762;23.430;2023-04-30T00:26:29;72992.44;;;-142.66;75.39
11468;BME280;5790;42.762;23.430;2023-04-30T00:28:56;72996.53;;;-142.66;75.54
11468;BME280;5790;42.762;23.430;2023-04-30T00:31:23;73006.72;;;-142.66;75.61
11468;BME280;5790;42.762;23.430;2023-04-30T00:33:51;73023.06;;;-142.66;75.31
11468;BME280;5790;42.762;23.430;2023-04-30T00:36:18;73055.72;;;-142.66;76.62
11468;BME280;5790;42.762;23.430;2023-04-30T00:38:46;73059.81;;;-142.66;77.04
11468;BME280;5790;42.762;23.430;2023-04-30T00:41:13;73065.94;;;-142.66;76.77
11468;BME280;5790;42.762;23.430;2023-04-30T00:43:40;73045.53;;;-142.66;76.01
11468;BME280;5790;42.762;23.430;2023-04-30T00:46:07;73037.34;;;-142.66;75.55
11468;BME280;5790;42.762;23.430;2023-04-30T00:48:34;73027.16;;;-142.66;75.01
11468;BME280;5790;42.762;23.430;2023-04-30T00:51:03;73018.97;;;-142.66;74.98
11468;BME280;5790;42.762;23.430;2023-04-30T00:53:30;73021.03;;;-142.66;74.92
11468;BME280;5790;42.762;23.430;2023-04-30T00:55:58;73018.97;;;-142.66;74.96
11468;BME280;5790;42.762;23.430;2023-04-30T00:58:25;73039.41;;;-142.66;75.64
11468;BME280;5790;42.762;23.430;2023-04-30T01:00:52;73043.47;;;-142.66;76.06
11468;BME280;5790;42.762;23.430;2023-04-30T01:03:19;73033.28;;;-142.66;76.02
11468;BME280;5790;42.762;23.430;2023-04-30T01:05:47;73023.06;;;-142.66;75.20
11468;BME280;5790;42.762;23.430;2023-04-30T01:08:16;73039.41;;;-142.66;74.44
11468;BME280;5790;42.762;23.430;2023-04-30T01:10:55;73059.81;;;-142.66;74.18
11468;BME280;5790;42.762;23.430;2023-04-30T01:13:30;73076.13;;;-142.66;74.54
11468;BME280;5790;42.762;23.430;2023-04-30T01:16:09;73096.56;;;-142.66;74.54
11468;BME280;5790;42.762;23.430;2023-04-30T01:18:42;73090.44;;;-142.66;74.37
11468;BME280;5790;42.762;23.430;2023-04-30T01:21:11;73067.97;;;-142.66;74.48
11468;BME280;5790;42.762;23.430;2023-04-30T01:23:57;73063.88;;;-142.66;74.94
11468;BME280;5790;42.762;23.430;2023-04-30T01:26:38;73074.09;;;-142.66;74.83
11468;BME280;5790;42.762;23.430;2023-04-30T01:29:13;73082.25;;;-142.66;75.26
11468;BME280;5790;42.762;23.430;2023-04-30T01:31:42;73129.22;;;-142.66;75.99
11468;BME280;5790;42.762;23.430;2023-04-30T01:34:09;73157.78;;;-142.66;76.89
11468;BME280;5790;42.762;23.430;2023-04-30T01:36:47;73204.72;;;-142.66;78.35
11468;BME280;5790;42.762;23.430;2023-04-30T01:39:41;73261.88;;;-142.66;82.14
11468;BME280;5790;42.762;23.430;2023-04-30T01:42:18;73261.88;;;-142.66;83.13
11468;BME280;5790;42.762;23.430;2023-04-30T01:45:25;73272.09;;;-142.66;83.82
11468;BME280;5790;42.762;23.430;2023-04-30T01:48:07;73261.88;;;-142.66;83.78
11468;BME280;5790;42.762;23.430;2023-04-30T01:50:46;73274.13;;;-142.66;84.24
11468;BME280;5790;42.762;23.430;2023-04-30T01:53:19;73265.97;;;-142.66;83.58
11468;BME280;5790;42.762;23.430;2023-04-30T01:55:50;73272.09;;;-142.66;83.80
11468;BME280;5790;42.762;23.430;2023-04-30T01:58:21;73274.13;;;-142.66;84.06
11468;BME280;5790;42.762;23.430;2023-04-30T02:00:50;73251.69;;;-142.66;83.46
11468;BME280;5790;42.762;23.430;2023-04-30T02:03:18;73219.03;;;-142.66;82.10
11468;BME280;5790;42.762;23.430;2023-04-30T02:05:46;73216.97;;;-142.66;81.42
11468;BME280;5790;42.762;23.430;2023-04-30T02:08:13;73243.50;;;-142.66;82.25
11468;BME280;5790;42.762;23.430;2023-04-30T02:10:40;73223.09;;;-142.66;81.43
11468;BME280;5790;42.762;23.430;2023-04-30T02:13:07;73223.09;;;-142.66;81.09
11468;BME280;5790;42.762;23.430;2023-04-30T02:15:34;73233.31;;;-142.66;80.87
11468;BME280;5790;42.762;23.430;2023-04-30T02:18:03;73243.50;;;-142.66;80.18
11468;BME280;5790;42.762;23.430;2023-04-30T02:20:30;73249.63;;;-142.66;79.97
11468;BME280;5790;42.762;23.430;2023-04-30T02:22:57;73257.81;;;-142.66;80.23
11468;BME280;5790;42.762;23.430;2023-04-30T02:25:24;73278.22;;;-142.66;80.72
11468;BME280;5790;42.762;23.430;2023-04-30T02:27:51;73314.97;;;-142.66;82.32
11468;BME280;5790;42.762;23.430;2023-04-30T02:30:18;73329.25;;;-142.66;83.06
11468;BME280;5790;42.762;23.430;2023-04-30T02:32:45;73300.69;;;-142.66;82.05
11468;BME280;5790;42.762;23.430;2023-04-30T02:35:14;73288.44;;;-142.66;81.67
11468;BME280;5790;42.762;23.430;2023-04-30T02:37:41;73274.13;;;-142.66;81.29
11468;BME280;5790;42.762;23.430;2023-04-30T02:40:09;73265.97;;;-142.66;81.15
11468;BME280;5790;42.762;23.430;2023-04-30T02:42:36;73278.22;;;-142.66;81.14
11468;BME280;5790;42.762;23.430;2023-04-30T02:45:04;73306.78;;;-142.66;81.51
11468;BME280;5790;42.762;23.430;2023-04-30T02:47:31;73312.91;;;-142.66;82.27
11468;BME280;5790;42.762;23.430;2023-04-30T02:49:58;73363.97;;;-142.66;84.63
11468;BME280;5790;42.762;23.430;2023-04-30T02:52:27;73347.63;;;-142.66;84.09
11468;BME280;5790;42.762;23.430;2023-04-30T02:54:54;73325.16;;;-142.66;83.66
11468;BME280;5790;42.762;23.430;2023-04-30T02:57:21;73302.72;;;-142.66;83.43
11468;BME280;5790;42.762;23.430;2023-04-30T02:59:48;73298.63;;;-142.66;83.08
11468;BME280;5790;42.762;23.430;2023-04-30T03:02:15;73296.59;;;-142.66;82.77
11468;BME280;5790;42.762;23.430;2023-04-30T03:04:45;73274.13;;;-142.66;82.28
11468;BME280;5790;42.762;23.430;2023-04-30T03:07:12;73261.88;;;-142.66;81.83
11468;BME280;5790;42.762;23.430;2023-04-30T03:09:42;73247.59;;;-142.66;81.45
11468;BME280;5790;42.762;23.430;2023-04-30T03:12:10;73261.88;;;-142.66;81.58
11468;BME280;5790;42.762;23.430;2023-04-30T03:14:39;73245.56;;;-142.66;81.76
11468;BME280;5790;42.762;23.430;2023-04-30T03:17:06;73249.63;;;-142.66;82.53
11468;BME280;5790;42.762;23.430;2023-04-30T03:19:33;73247.59;;;-142.66;83.04
11468;BME280;5790;42.762;23.430;2023-04-30T03:22:00;73243.50;;;-142.66;82.70
11468;BME280;5790;42.762;23.430;2023-04-30T03:24:27;73231.28;;;-142.66;82.45
11468;BME280;5790;42.762;23.430;2023-04-30T03:26:56;73223.09;;;-142.66;82.42
11468;BME280;5790;42.762;23.430;2023-04-30T03:29:23;73208.81;;;-142.66;82.00
11468;BME280;5790;42.762;23.430;2023-04-30T03:31:50;73227.19;;;-142.66;82.28
11468;BME280;5790;42.762;23.430;2023-04-30T03:34:17;73221.06;;;-142.66;82.26
11468;BME280;5790;42.762;23.430;2023-04-30T03:36:44;73210.84;;;-142.66;81.93
11468;BME280;5790;42.762;23.430;2023-04-30T03:39:11;73212.91;;;-142.66;82.02
11468;BME280;5790;42.762;23.430;2023-04-30T03:41:38;73200.66;;;-142.66;81.66
11468;BME280;5790;42.762;23.430;2023-04-30T03:44:06;73214.94;;;-142.66;81.73
11468;BME280;5790;42.762;23.430;2023-04-30T03:46:40;73212.91;;;-142.66;82.21
11468;BME280;5790;42.762;23.430;2023-04-30T03:49:07;73202.69;;;-142.66;82.64
11468;BME280;5790;42.762;23.430;2023-04-30T03:51:35;73210.84;;;-142.66;83.11
11468;BME280;5790;42.762;23.430;2023-04-30T03:54:04;73206.78;;;-142.66;82.86
11468;BME280;5790;42.762;23.430;2023-04-30T03:56:31;73214.94;;;-142.66;83.87
11468;BME280;5790;42.762;23.430;2023-04-30T03:58:58;73216.97;;;-142.66;84.05
11468;BME280;5790;42.762;23.430;2023-04-30T04:01:28;73214.94;;;-142.66;84.40
11468;BME280;5790;42.762;23.430;2023-04-30T04:03:55;73231.28;;;-142.66;85.85
11468;BME280;5790;42.762;23.430;2023-04-30T04:06:22;73243.50;;;-142.66;87.02
11468;BME280;5790;42.762;23.430;2023-04-30T04:08:49;73227.19;;;-142.66;86.57
11468;BME280;5790;42.762;23.430;2023-04-30T04:11:16;73221.06;;;-142.66;86.88
11468;BME280;5790;42.762;23.430;2023-04-30T04:13:43;73227.19;;;-142.66;86.79
11468;BME280;5790;42.762;23.430;2023-04-30T04:16:10;73212.91;;;-142.66;86.96
11468;BME280;5790;42.762;23.430;2023-04-30T04:18:38;73198.63;;;-142.66;86.85
11468;BME280;5790;42.762;23.430;2023-04-30T04:21:05;73188.41;;;-142.66;87.03
11468;BME280;5790;42.762;23.430;2023-04-30T04:23:33;73172.06;;;-142.66;85.72
11468;BME280;5790;42.762;23.430;2023-04-30T04:26:00;73161.88;;;-142.66;85.14
11468;BME280;5790;42.762;23.430;2023-04-30T04:28:27;73155.75;;;-142.66;84.55
11468;BME280;5790;42.762;23.430;2023-04-30T04:30:54;73161.88;;;-142.66;84.51
11468;BME280;5790;42.762;23.430;2023-04-30T04:33:21;73151.66;;;-142.66;84.24
11468;BME280;5790;42.762;23.430;2023-04-30T04:35:50;73143.50;;;-142.66;83.85
11468;BME280;5790;42.762;23.430;2023-04-30T04:38:17;73139.41;;;-142.66;84.19
11468;BME280;5790;42.762;23.430;2023-04-30T04:40:50;73151.66;;;-142.66;83.95
11468;BME280;5790;42.762;23.430;2023-04-30T04:43:18;73129.22;;;-142.66;83.63
11468;BME280;5790;42.762;23.430;2023-04-30T04:45:45;73119.00;;;-142.66;83.03
11468;BME280;5790;42.762;23.430;2023-04-30T04:48:13;73133.28;;;-142.66;82.57
11468;BME280;5790;42.762;23.430;2023-04-30T04:50:40;73149.63;;;-142.66;86.08
11468;BME280;5790;42.762;23.430;2023-04-30T04:53:08;73149.63;;;-142.66;87.03
11468;BME280;5790;42.762;23.430;2023-04-30T04:55:35;73149.63;;;-142.66;87.27
11468;BME280;5790;42.762;23.430;2023-04-30T04:58:02;73161.88;;;-142.66;88.07
11468;BME280;5790;42.762;23.430;2023-04-30T05:00:29;73157.78;;;-142.66;87.95
11468;BME280;5790;42.762;23.430;2023-04-30T05:02:58;73168.00;;;-142.66;89.32
11468;BME280;5790;42.762;23.430;2023-04-30T05:05:25;73163.91;;;-142.66;89.43
11468;BME280;5790;42.762;23.430;2023-04-30T05:07:52;73145.53;;;-142.66;89.45
11468;BME280;5790;42.762;23.430;2023-04-30T05:10:21;73137.38;;;-142.66;88.80
11468;BME280;5790;42.762;23.430;2023-04-30T05:12:48;73133.28;;;-142.66;88.55
11468;BME280;5790;42.762;23.430;2023-04-30T05:15:15;73133.28;;;-142.66;89.29
11468;BME280;5790;42.762;23.430;2023-04-30T05:17:43;73127.16;;;-142.66;89.19
11468;BME280;5790;42.762;23.430;2023-04-30T05:20:11;73110.84;;;-142.66;88.17
11468;BME280;5790;42.762;23.430;2023-04-30T05:22:38;73116.97;;;-142.66;87.63
11468;BME280;5790;42.762;23.430;2023-04-30T05:25:06;73096.56;;;-142.66;87.17
11468;BME280;5790;42.762;23.430;2023-04-30T05:27:34;73100.63;;;-142.66;87.85
11468;BME280;5790;42.762;23.430;2023-04-30T05:30:02;73112.88;;;-142.66;86.13
11468;BME280;5790;42.762;23.430;2023-04-30T05:32:29;73104.72;;;-142.66;85.47
11468;BME280;5790;42.762;23.430;2023-04-30T05:34:56;73080.22;;;-142.66;84.90
11468;BME280;5790;42.762;23.430;2023-04-30T05:37:23;73094.50;;;-142.66;84.53
11468;BME280;5790;42.762;23.430;2023-04-30T05:39:50;73104.72;;;-142.66;84.75
11468;BME280;5790;42.762;23.430;2023-04-30T05:42:18;73104.72;;;-142.66;85.77
11468;BME280;5790;42.762;23.430;2023-04-30T05:44:47;73088.38;;;-142.66;85.59
11468;BME280;5790;42.762;23.430;2023-04-30T05:47:14;73086.34;;;-142.66;86.92
11468;BME280;5790;42.762;23.430;2023-04-30T05:49:41;73090.44;;;-142.66;86.48
11468;BME280;5790;42.762;23.430;2023-04-30T05:52:08;73084.31;;;-142.66;86.23
11468;BME280;5790;42.762;23.430;2023-04-30T05:54:35;73076.13;;;-142.66;86.80
11468;BME280;5790;42.762;23.430;2023-04-30T05:57:02;73070.00;;;-142.66;86.00
11468;BME280;5790;42.762;23.430;2023-04-30T05:59:29;73061.84;;;-142.66;85.43
11468;BME280;5790;42.762;23.430;2023-04-30T06:01:58;73074.09;;;-142.66;84.81
11468;BME280;5790;42.762;23.430;2023-04-30T06:04:25;73067.97;;;-142.66;85.86
11468;BME280;5790;42.762;23.430;2023-04-30T06:06:52;73057.75;;;-142.66;85.90
11468;BME280;5790;42.762;23.430;2023-04-30T06:09:19;73043.47;;;-142.66;85.36
11468;BME280;5790;42.762;23.430;2023-04-30T06:11:46;73067.97;;;-142.66;86.29
11468;BME280;5790;42.762;23.430;2023-04-30T06:14:15;73088.38;;;-142.66;86.84
11468;BME280;5790;42.762;23.430;2023-04-30T06:16:42;73116.97;;;-142.66;86.80
11468;BME280;5790;42.762;23.430;2023-04-30T06:19:11;73094.50;;;-142.66;86.26
11468;BME280;5790;42.762;23.430;2023-04-30T06:21:38;73063.88;;;-142.66;85.88
11468;BME280;5790;42.762;23.430;2023-04-30T06:24:05;73051.63;;;-142.66;86.50
11468;BME280;5790;42.762;23.430;2023-04-30T06:26:32;73031.22;;;-142.66;85.46
11468;BME280;5790;42.762;23.430;2023-04-30T06:28:59;73041.44;;;-142.66;84.82
11468;BME280;5790;42.762;23.430;2023-04-30T06:31:26;72990.41;;;-142.66;85.71
11468;BME280;5790;42.762;23.430;2023-04-30T06:33:53;72943.47;;;-142.66;83.55
11468;BME280;5790;42.762;23.430;2023-04-30T06:36:22;72939.38;;;-142.66;80.40
11468;BME280;5790;42.762;23.430;2023-04-30T06:38:49;72935.28;;;-142.66;80.54
11468;BME280;5790;42.762;23.430;2023-04-30T06:41:16;72931.22;;;-142.66;81.53
11468;BME280;5790;42.762;23.430;2023-04-30T06:43:43;72935.28;;;-142.66;81.30
11468;BME280;5790;42.762;23.430;2023-04-30T06:46:10;72921.00;;;-142.66;80.56
11468;BME280;5790;42.762;23.430;2023-04-30T06:48:39;72914.88;;;-142.66;81.09
11468;BME280;5790;42.762;23.430;2023-04-30T06:51:06;72900.59;;;-142.66;81.59
11468;BME280;5790;42.762;23.430;2023-04-30T06:53:35;72900.59;;;-142.66;81.05
11468;BME280;5790;42.762;23.430;2023-04-30T06:56:02;72845.50;;;-142.66;79.89
11468;BME280;5790;42.762;23.430;2023-04-30T06:58:29;72810.78;;;-142.66;78.29
11468;BME280;5790;42.762;23.430;2023-04-30T07:00:56;72776.09;;;-142.66;77.58
11468;BME280;5790;42.762;23.430;2023-04-30T07:03:23;72714.88;;;-142.66;75.25
11468;BME280;5790;42.762;23.430;2023-04-30T07:05:50;72655.69;;;-142.66;72.90
11468;BME280;5790;42.762;23.430;2023-04-30T07:08:18;72625.06;;;-142.66;73.14
11468;BME280;5790;42.762;23.430;2023-04-30T07:10:47;72604.66;;;-142.66;67.77
11468;BME280;5790;42.762;23.430;2023-04-30T07:13:15;72616.91;;;-142.66;67.37
11468;BME280;5790;42.762;23.430;2023-04-30T07:15:42;72639.34;;;-142.66;65.97
11468;BME280;5790;42.762;23.430;2023-04-30T07:18:09;72653.63;;;-142.66;65.91
11468;BME280;5790;42.762;23.430;2023-04-30T07:20:37;72674.03;;;-142.66;66.75
11468;BME280;5790;42.762;23.430;2023-04-30T07:23:04;72682.22;;;-142.66;68.99
11468;BME280;5790;42.762;23.430;2023-04-30T07:25:31;72686.28;;;-142.66;70.92
11468;BME280;5790;42.762;23.430;2023-04-30T07:27:59;72700.56;;;-142.66;72.08
11468;BME280;5790;42.762;23.430;2023-04-30T07:30:26;72700.56;;;-142.66;72.19
11468;BME280;5790;42.762;23.430;2023-04-30T07:32:53;72712.81;;;-142.66;71.42
11468;BME280;5790;42.762;23.430;2023-04-30T07:35:20;72708.75;;;-142.66;71.07
11468;BME280;5790;42.762;23.430;2023-04-30T07:37:47;72710.78;;;-142.66;72.42
11468;BME280;5790;42.762;23.430;2023-04-30T07:40:15;72720.97;;;-142.66;71.67
11468;BME280;5790;42.762;23.430;2023-04-30T07:42:42;72716.91;;;-142.66;73.68
11468;BME280;5790;42.762;23.430;2023-04-30T07:45:10;72698.53;;;-142.66;72.89
11468;BME280;5790;42.762;23.430;2023-04-30T07:47:38;72712.81;;;-142.66;74.00
11468;BME280;5790;42.762;23.430;2023-04-30T07:50:06;72694.47;;;-142.66;73.56
11468;BME280;5790;42.762;23.430;2023-04-30T07:52:33;72686.28;;;-142.66;72.84
11468;BME280;5790;42.762;23.430;2023-04-30T07:55:00;72647.50;;;-142.66;72.50
11468;BME280;5790;42.762;23.430;2023-04-30T07:57:27;72608.72;;;-142.66;70.44
11468;BME280;5790;42.762;23.430;2023-04-30T07:59:54;72631.19;;;-142.66;68.14
11468;BME280;5790;42.762;23.430;2023-04-30T08:02:23;72653.63;;;-142.66;69.66
11468;BME280;5790;42.762;23.430;2023-04-30T08:04:50;72661.81;;;-142.66;70.25
11468;BME280;5790;42.762;23.430;2023-04-30T08:07:17;72631.19;;;-142.66;70.25
11468;BME280;5790;42.762;23.430;2023-04-30T08:09:45;72631.19;;;-142.66;69.04
11468;BME280;5790;42.762;23.430;2023-04-30T08:12:12;72655.69;;;-142.66;69.57
11468;BME280;5790;42.762;23.430;2023-04-30T08:14:39;72667.91;;;-142.66;69.64
11468;BME280;5790;42.762;23.430;2023-04-30T08:17:07;72669.97;;;-142.66;70.49
11468;BME280;5790;42.762;23.430;2023-04-30T08:19:35;72710.78;;;-142.66;70.06
11468;BME280;5790;42.762;23.430;2023-04-30T08:22:02;72700.56;;;-142.66;70.17
11468;BME280;5790;42.762;23.430;2023-04-30T08:24:29;72696.50;;;-142.66;72.92
11468;BME280;5790;42.762;23.430;2023-04-30T08:26:56;72690.38;;;-142.66;76.41
11468;BME280;5790;42.762;23.430;2023-04-30T08:29:25;72684.25;;;-142.66;78.19
11468;BME280;5790;42.762;23.430;2023-04-30T08:31:53;72688.34;;;-142.66;76.83
11468;BME280;5790;42.762;23.430;2023-04-30T08:34:20;72669.97;;;-142.66;78.21
11468;BME280;5790;42.762;23.430;2023-04-30T08:36:48;72653.63;;;-142.66;75.78
11468;BME280;5790;42.762;23.430;2023-04-30T08:39:15;72655.69;;;-142.66;72.86
11468;BME280;5790;42.762;23.430;2023-04-30T08:41:45;72639.34;;;-142.66;72.50
11468;BME280;5790;42.762;23.430;2023-04-30T08:44:20;72623.03;;;-142.66;72.05
11468;BME280;5790;42.762;23.430;2023-04-30T08:46:48;72606.69;;;-142.66;71.96
11468;BME280;5790;42.762;23.430;2023-04-30T08:49:19;72588.31;;;-142.66;71.13
11468;BME280;5790;42.762;23.430;2023-04-30T08:51:47;72582.19;;;-142.66;69.95
11468;BME280;5790;42.762;23.430;2023-04-30T08:54:16;72559.75;;;-142.66;71.97
11468;BME280;5790;42.762;23.430;2023-04-30T08:56:44;72555.66;;;-142.66;71.26
11468;BME280;5790;42.762;23.430;2023-04-30T08:59:12;72559.75;;;-142.66;70.00
11468;BME280;5790;42.762;23.430;2023-04-30T09:01:40;72545.47;;;-142.66;69.56
11468;BME280;5790;42.762;23.430;2023-04-30T09:04:07;72533.22;;;-142.66;70.19
11468;BME280;5790;42.762;23.430;2023-04-30T09:06:34;72496.47;;;-142.66;69.77
11468;BME280;5790;42.762;23.430;2023-04-30T09:09:11;72490.38;;;-142.66;65.78
11468;BME280;5790;42.762;23.430;2023-04-30T09:11:38;72427.09;;;-142.66;66.03
11468;BME280;5790;42.762;23.430;2023-04-30T09:14:06;72384.25;;;-142.66;64.57
11468;BME280;5790;42.762;23.430;2023-04-30T09:16:45;72355.66;;;-142.66;64.66
11468;BME280;5790;42.762;23.430;2023-04-30T09:19:22;72331.19;;;-142.66;62.67
11468;BME280;5790;42.762;23.430;2023-04-30T09:21:50;72304.66;;;-142.66;62.62
11468;BME280;5790;42.762;23.430;2023-04-30T09:24:19;72292.41;;;-142.66;61.34
11468;BME280;5790;42.762;23.430;2023-04-30T09:26:46;72296.50;;;-142.66;60.94
11468;BME280;5790;42.762;23.430;2023-04-30T09:29:14;72316.91;;;-142.66;58.39
11468;BME280;5790;42.762;23.430;2023-04-30T09:31:44;72343.44;;;-142.66;56.06
11468;BME280;5790;42.762;23.430;2023-04-30T09:34:11;72382.19;;;-142.66;61.47
11468;BME280;5790;42.762;23.430;2023-04-30T09:36:51;72380.16;;;-142.66;64.79
11468;BME280;5790;42.762;23.430;2023-04-30T09:39:21;72390.38;;;-142.66;68.32
11468;BME280;5790;42.762;23.430;2023-04-30T09:41:49;72408.72;;;-142.66;74.32
11468;BME280;5790;42.762;23.430;2023-04-30T09:44:26;72439.34;;;-142.66;77.75
11468;BME280;5790;42.762;23.430;2023-04-30T09:46:55;72484.25;;;-142.66;78.32
11468;BME280;5790;42.762;23.430;2023-04-30T09:49:23;72518.94;;;-142.66;81.74
11468;BME280;5790;42.762;23.430;2023-04-30T09:51:54;72547.50;;;-142.66;79.43
11468;BME280;5790;42.762;23.430;2023-04-30T09:54:24;72580.16;;;-142.66;82.05
11468;BME280;5790;42.762;23.430;2023-04-30T09:56:53;72578.13;;;-142.66;90.09
11468;BME280;5790;42.762;23.430;2023-04-30T09:59:21;72584.25;;;-142.66;90.83
11468;BME280;5790;42.762;23.430;2023-04-30T10:01:51;72602.63;;;-142.66;86.58
11468;BME280;5790;42.762;23.430;2023-04-30T10:04:19;72606.69;;;-142.66;80.10
11468;BME280;5790;42.762;23.430;2023-04-30T10:06:51;72616.91;;;-142.66;77.78
11468;BME280;5790;42.762;23.430;2023-04-30T10:09:23;72614.84;;;-142.66;79.75
11468;BME280;5790;42.762;23.430;2023-04-30T10:11:52;72602.63;;;-142.66;81.08
11468;BME280;5790;42.762;23.430;2023-04-30T10:14:21;72576.09;;;-142.66;80.90
11468;BME280;5790;42.762;23.430;2023-04-30T10:16:52;72541.38;;;-142.66;81.39
11468;BME280;5790;42.762;23.430;2023-04-30T10:19:23;72504.66;;;-142.66;81.82
11468;BME280;5790;42.762;23.430;2023-04-30T10:21:51;72478.13;;;-142.66;75.89
11468;BME280;5790;42.762;23.430;2023-04-30T10:24:19;72455.66;;;-142.66;72.96
11468;BME280;5790;42.762;23.430;2023-04-30T10:26:48;72443.44;;;-142.66;72.51
11468;BME280;5790;42.762;23.430;2023-04-30T10:29:16;72433.22;;;-142.66;74.25
11468;BME280;5790;42.762;23.430;2023-04-30T10:31:46;72435.25;;;-142.66;79.49
11468;BME280;5790;42.762;23.430;2023-04-30T10:34:19;72463.84;;;-142.66;83.62
11468;BME280;5790;42.762;23.430;2023-04-30T10:36:53;72549.56;;;-142.66;77.08
11468;BME280;5790;42.762;23.430;2023-04-30T10:39:24;72598.53;;;-142.66;82.32
11468;BME280;5790;42.762;23.430;2023-04-30T10:42:01;72639.34;;;-142.66;80.02
11468;BME280;5790;42.762;23.430;2023-04-30T10:44:31;72667.91;;;-142.66;83.60
11468;BME280;5790;42.762;23.430;2023-04-30T10:47:00;72714.88;;;-142.66;87.88
11468;BME280;5790;42.762;23.430;2023-04-30T10:49:28;72741.41;;;-142.66;88.97
11468;BME280;5790;42.762;23.430;2023-04-30T10:51:58;72774.06;;;-142.66;92.18
11468;BME280;5790;42.762;23.430;2023-04-30T10:54:28;72784.25;;;-142.66;93.83
11468;BME280;5790;42.762;23.430;2023-04-30T10:57:09;72767.94;;;-142.66;92.84
11468;BME280;5790;42.762;23.430;2023-04-30T10:59:41;72725.06;;;-142.66;92.60
11468;BME280;5790;42.762;23.430;2023-04-30T11:02:10;72694.47;;;-142.66;90.71
11468;BME280;5790;42.762;23.430;2023-04-30T11:05:07;72659.75;;;-142.66;89.22
11468;BME280;5790;42.762;23.430;2023-04-30T11:07:34;72623.03;;;-142.66;95.26
11468;BME280;5790;42.762;23.430;2023-04-30T11:10:02;72618.94;;;-142.66;93.90
11468;BME280;5790;42.762;23.430;2023-04-30T11:12:31;72594.44;;;-142.66;90.55
11468;BME280;5790;42.762;23.430;2023-04-30T11:15:00;72574.03;;;-142.66;90.85
11468;BME280;5790;42.762;23.430;2023-04-30T11:17:27;72543.44;;;-142.66;94.29
11468;BME280;5790;42.762;23.430;2023-04-30T11:19:58;72547.50;;;-142.66;88.54
11468;BME280;5790;42.762;23.430;2023-04-30T11:22:27;72549.56;;;-142.66;86.41
11468;BME280;5790;42.762;23.430;2023-04-30T11:25:03;72584.25;;;-142.66;87.32
11468;BME280;5790;42.762;23.430;2023-04-30T11:27:33;72620.97;;;-142.66;93.38
11468;BME280;5790;42.762;23.430;2023-04-30T11:30:02;72635.25;;;-142.66;96.87
11468;BME280;5790;42.762;23.430;2023-04-30T11:32:34;72637.31;;;-142.66;99.08
11468;BME280;5790;42.762;23.430;2023-04-30T11:35:02;72635.25;;;-142.66;100.00
11468;BME280;5790;42.762;23.430;2023-04-30T11:37:31;72618.94;;;-142.66;100.00
11468;BME280;5790;42.762;23.430;2023-04-30T11:40:00;72586.28;;;-142.66;100.00
11468;BME280;5790;42.762;23.430;2023-04-30T11:42:28;72563.84;;;-142.66;92.12
11468;BME280;5790;42.762;23.430;2023-04-30T11:45:05;72557.72;;;-142.66;92.18
11468;BME280;5790;42.762;23.430;2023-04-30T11:47:40;72561.78;;;-142.66;89.48
11468;BME280;5790;42.762;23.430;2023-04-30T11:50:09;72551.59;;;-142.66;82.94
11468;BME280;5790;42.762;23.430;2023-04-30T11:52:36;72506.69;;;-142.66;90.30
11468;BME280;5790;42.762;23.430;2023-04-30T11:55:10;72496.47;;;-142.66;81.03
11468;BME280;5790;42.762;23.430;2023-04-30T11:57:42;72484.25;;;-142.66;78.76
11468;BME280;5790;42.762;23.430;2023-04-30T12:00:13;72467.91;;;-142.66;77.94
11468;BME280;5790;42.762;23.430;2023-04-30T12:02:42;72467.91;;;-142.66;76.95
11468;BME280;5790;42.762;23.430;2023-04-30T12:05:14;72465.88;;;-142.66;77.98
11468;BME280;5790;42.762;23.430;2023-04-30T12:07:47;72490.38;;;-142.66;73.43
11468;BME280;5790;42.762;23.430;2023-04-30T12:10:15;72496.47;;;-142.66;75.45
11468;BME280;5790;42.762;23.430;2023-04-30T12:12:43;72508.72;;;-142.66;74.99
11468;BME280;5790;42.762;23.430;2023-04-30T12:15:13;72535.25;;;-142.66;80.52
11468;BME280;5790;42.762;23.430;2023-04-30T12:17:42;72555.66;;;-142.66;86.43
11468;BME280;5790;42.762;23.430;2023-04-30T12:20:10;72588.31;;;-142.66;91.87
11468;BME280;5790;42.762;23.430;2023-04-30T12:22:39;72576.09;;;-142.66;95.49
11468;BME280;5790;42.762;23.430;2023-04-30T12:25:10;72600.56;;;-142.66;94.81
11468;BME280;5790;42.762;23.430;2023-04-30T12:27:39;72618.94;;;-142.66;93.67
11468;BME280;5790;42.762;23.430;2023-04-30T12:30:08;72606.69;;;-142.66;93.88
11468;BME280;5790;42.762;23.430;2023-04-30T12:32:42;72563.84;;;-142.66;97.58
11468;BME280;5790;42.762;23.430;2023-04-30T12:35:13;72553.63;;;-142.66;96.56
11468;BME280;5790;42.762;23.430;2023-04-30T12:37:42;72539.34;;;-142.66;93.08
11468;BME280;5790;42.762;23.430;2023-04-30T12:40:11;72533.22;;;-142.66;90.90
11468;BME280;5790;42.762;23.430;2023-04-30T12:42:39;72502.59;;;-142.66;89.76
11468;BME280;5790;42.762;23.430;2023-04-30T12:45:08;72494.44;;;-142.66;88.69
11468;BME280;5790;42.762;23.430;2023-04-30T12:47:38;72488.31;;;-142.66;88.82
11468;BME280;5790;42.762;23.430;2023-04-30T12:50:09;72461.78;;;-142.66;91.15